Flight Track Log - Related Links

Times and Time Zones

All times are in EDT time to prevent confusion due to time zone crossing. See the UAL4530 flight status page for this flight to view local times or setup timezone preferences in your user account.

Time Position Orientation Groundspeed Altitude Reporting Facility
EDT Latitude Longitude Course Direction KTS MPH feet Rate Location/Type
Mon 01:52:42 PM 40.6333 -74.1833 270° West 188 216 2,500  Level New York TRACON
Mon 01:53:42 PM 40.6333 -74.2500 270° West 228 262 4,700 2,400 Climbing New York TRACON
Mon 01:54:42 PM 40.6667 -74.3333 298° West 248 285 7,300 2,300 Climbing New York TRACON
Mon 01:55:00 PM 40.7456 -74.6510 277° West  Level FlightAware Approximate
Mon 01:55:42 PM 40.7333 -74.3667 339° North 276 318 9,300  Level New York TRACON
Mon 01:56:00 PM 40.7560 -74.7769 276° West  Level FlightAware Approximate
Mon 01:56:42 PM 40.8167 -74.4000 343° North 303 349 11,300  Level New York TRACON
Mon 01:57:00 PM 40.7656 -74.9030 276° West  Level FlightAware Approximate
Mon 01:57:42 PM 40.9000 -74.4333 343° North 305 351 12,400  Level New York TRACON
Mon 01:58:00 PM 40.7833 -75.0250 270° West  Level FlightAware Approximate
Mon 01:58:12 PM 40.9314 -74.4461 343° North 314 361 12,900  Level New York Center
Mon 01:59:12 PM 40.9731 -74.5169 308° West 269 310 13,000 992 Climbing New York Center
Mon 02:00:13 PM 40.9461 -74.6392 254° West 278 320 14,900 1,678 Climbing New York Center
Mon 02:01:10 PM 40.9178 -74.7392 249° West 312 359 16,300 1,077 Climbing New York Center
Mon 02:02:10 PM 40.8800 -74.8686 249° West 343 395 17,000 347 Climbing New York Center
Mon 02:03:11 PM 40.8444 -74.9925 249° West 364 419 17,000 545 Level New York Center
Mon 02:04:11 PM 40.8089 -75.1111 248° West 370 426 18,100 1,190 Climbing New York Center
Mon 02:05:12 PM 40.7875 -75.2383 258° West 358 412 19,400 1,587 Climbing New York Center
Mon 02:06:12 PM 40.7706 -75.3525 259° West 358 412 21,300 1,664 Climbing New York Center
Mon 02:07:11 PM 40.7322 -75.4786 248° West 353 406 22,700 1,261 Climbing New York Center
Mon 02:08:11 PM 40.6878 -75.5986 244° Southwest 358 412 23,800 1,150 Climbing New York Center
Mon 02:09:11 PM 40.6411 -75.7214 243° Southwest 369 425 25,000 1,140 Climbing New York Center
Mon 02:10:12 PM 40.5942 -75.8436 243° Southwest 375 432 26,100 1,091 Climbing New York Center
Mon 02:11:12 PM 40.5497 -75.9578 243° Southwest 381 438 27,200 966 Climbing New York Center
Mon 02:12:10 PM 40.5025 -76.0825 244° Southwest 381 438 28,000 807 Climbing New York Center
Mon 02:13:11 PM 40.4483 -76.2203 243° Southwest 386 444 28,800 843 Climbing New York Center
Mon 02:14:11 PM 40.3986 -76.3500 243° Southwest 391 450 29,700 893 Climbing New York Center
Mon 02:15:12 PM 40.3528 -76.4797 245° Southwest 397 457 30,600 992 Climbing New York Center
Mon 02:16:12 PM 40.3211 -76.6158 253° West 397 457 31,700 1,059 Climbing New York Center
Mon 02:17:11 PM 40.2853 -76.7461 250° West 392 451 32,700 1,008 Climbing New York Center
Mon 02:18:11 PM 40.2536 -76.8769 252° West 386 444 33,700 1,000 Climbing New York Center
Mon 02:19:11 PM 40.2200 -77.0017 251° West 386 444 34,700 992 Climbing New York Center
Mon 02:20:12 PM 40.1881 -77.1319 252° West 376 433 35,700 655 Climbing New York Center
Mon 02:21:10 PM 40.1564 -77.2542 251° West 370 426 36,000 92 Climbing New York Center
Mon 02:23:27 PM 40.1292 -77.5633 264° West 373 429 36,000  Level Cleveland Center
Mon 02:24:26 PM 40.1267 -77.7022 269° West 380 437 36,000  Level Cleveland Center
Mon 02:25:27 PM 40.1261 -77.8461 270° West 387 445 36,000  Level Cleveland Center
Mon 02:26:27 PM 40.1189 -77.9847 266° West 387 445 36,000  Level Cleveland Center
Mon 02:27:26 PM 40.1156 -78.1233 268° West 387 445 36,000  Level Cleveland Center
Mon 02:28:26 PM 40.1103 -78.2619 267° West 387 445 36,000  Level Cleveland Center
Mon 02:29:26 PM 40.1089 -78.4006 269° West 387 445 36,000  Level Cleveland Center
Mon 02:30:26 PM 40.1050 -78.5392 268° West 387 445 36,000  Level Cleveland Center
Mon 02:31:27 PM 40.0992 -78.6778 267° West 387 445 36,000  Level Cleveland Center
Mon 02:32:26 PM 40.0953 -78.8217 268° West 387 445 36,000  Level Cleveland Center
Mon 02:33:26 PM 40.0889 -78.9603 267° West 387 445 36,000  Level Cleveland Center
Mon 02:34:26 PM 40.0867 -79.0986 269° West 387 445 36,000  Level Cleveland Center
Mon 02:35:27 PM 40.0800 -79.2400 267° West 387 445 36,000  Level Cleveland Center
Mon 02:36:27 PM 40.0797 -79.3811 270° West 387 445 36,000  Level Cleveland Center
Mon 02:37:26 PM 40.0747 -79.5222 267° West 387 445 36,000  Level Cleveland Center
Mon 02:38:27 PM 40.0675 -79.6608 266° West 387 445 36,000  Level Cleveland Center
Mon 02:39:27 PM 40.0625 -79.8019 267° West 387 445 36,000  Level Cleveland Center
Mon 02:40:26 PM 40.0592 -79.9267 268° West 387 445 36,000  Level Cleveland Center
Mon 02:41:26 PM 40.0536 -80.0706 267° West 387 445 36,000  Level Cleveland Center
Mon 02:42:26 PM 40.0478 -80.2117 267° West 387 445 36,000  Level Cleveland Center
Mon 02:43:27 PM 40.0419 -80.3525 267° West 392 451 36,000  Level Cleveland Center
Mon 02:44:27 PM 40.0339 -80.4936 266° West 392 451 36,000  Level Cleveland Center
Mon 02:45:26 PM 40.0275 -80.6372 267° West 392 451 36,000  Level Cleveland Center
Mon 02:47:12 PM 40.0153 -80.8847 266° West 393 452 36,000  Level Indianapolis Center
Mon 02:48:13 PM 40.0144 -81.0283 270° West 392 451 36,000  Level Indianapolis Center
Mon 02:49:15 PM 40.0114 -81.1719 268° West 392 451 36,000  Level Indianapolis Center
Mon 02:50:17 PM 40.0089 -81.3389 269° West 393 452 36,000  Level Indianapolis Center
Mon 02:51:19 PM 40.0056 -81.4822 268° West 391 450 36,000  Level Indianapolis Center
Mon 02:52:20 PM 40.0036 -81.6258 269° West 392 451 36,000  Level Indianapolis Center
Mon 02:53:22 PM 40.0006 -81.7697 268° West 393 452 36,000  Level Indianapolis Center
Mon 02:54:24 PM 39.9972 -81.9050 268° West 392 451 36,000  Level Indianapolis Center
Mon 02:55:26 PM 39.9936 -82.0469 268° West 391 450 36,000  Level Indianapolis Center
Mon 02:56:27 PM 39.9908 -82.1900 269° West 392 451 36,000  Level Indianapolis Center
Mon 02:57:29 PM 39.9867 -82.3564 268° West 390 449 36,000  Level Indianapolis Center
Mon 02:58:31 PM 39.9828 -82.4986 268° West 389 448 36,000  Level Indianapolis Center
Mon 02:59:33 PM 39.9786 -82.6392 268° West 386 444 36,000  Level Indianapolis Center
Mon 03:00:35 PM 39.9742 -82.7850 268° West 386 444 36,000  Level Indianapolis Center
Mon 03:01:36 PM 39.9697 -82.9242 268° West 384 442 36,000  Level Indianapolis Center
Mon 03:02:38 PM 39.9664 -83.0644 268° West 387 445 36,000  Level Indianapolis Center
Mon 03:03:40 PM 39.9636 -83.2033 269° West 386 444 36,000  Level Indianapolis Center
Mon 03:04:42 PM 39.9592 -83.3417 268° West 384 442 36,000  Level Indianapolis Center
Mon 03:05:44 PM 39.9536 -83.4825 267° West 388 447 36,000 -48 Level Indianapolis Center
Mon 03:06:46 PM 39.9486 -83.6417 268° West 399 459 35,900  Descending Indianapolis Center
Mon 03:07:48 PM 39.9475 -83.7878 269° West 378 435 36,000 48 Climbing Indianapolis Center
Mon 03:08:50 PM 39.9472 -83.9236 270° West 376 433 36,000  Level Indianapolis Center
Mon 03:09:51 PM 39.9486 -84.0592 271° West 374 430 36,000  Level Indianapolis Center
Mon 03:10:53 PM 39.9500 -84.1969 271° West 379 436 36,000  Level Indianapolis Center
Mon 03:11:55 PM 39.9500 -84.3517 270° West 380 437 36,000  Level Indianapolis Center
Mon 03:12:57 PM 39.9492 -84.4917 270° West 383 441 36,000  Level Indianapolis Center
Mon 03:13:59 PM 39.9489 -84.6303 270° West 381 438 36,000  Level Indianapolis Center
Mon 03:15:01 PM 39.9486 -84.7697 270° West 382 440 36,000  Level Indianapolis Center
Mon 03:16:03 PM 39.9494 -84.9083 270° West 379 436 36,000  Level Indianapolis Center
Mon 03:17:05 PM 39.9494 -85.0447 270° West 377 434 36,000  Level Indianapolis Center
Mon 03:18:07 PM 39.9486 -85.2047 270° West 375 432 36,000  Level Indianapolis Center
Mon 03:19:09 PM 39.9475 -85.3433 269° West 379 436 36,000  Level Indianapolis Center
Mon 03:20:10 PM 39.9453 -85.4819 269° West 379 436 36,000  Level Indianapolis Center
Mon 03:21:12 PM 39.9461 -85.6208 270° West 381 438 36,000  Level Indianapolis Center
Mon 03:22:14 PM 39.9425 -85.7597 268° West 380 437 36,000  Level Indianapolis Center
Mon 03:23:16 PM 39.9417 -85.9006 270° West 383 441 36,000  Level Indianapolis Center
Mon 03:24:18 PM 39.9403 -86.0506 269° West 384 442 36,000  Level Indianapolis Center
Mon 03:25:20 PM 39.9386 -86.1894 269° West 383 441 36,000  Level Indianapolis Center
Mon 03:26:21 PM 39.9372 -86.3264 269° West 380 437 36,000  Level Indianapolis Center
Mon 03:27:23 PM 39.9350 -86.4639 269° West 379 436 36,000  Level Indianapolis Center
Mon 03:28:25 PM 39.9325 -86.6000 269° West 377 434 36,000  Level Indianapolis Center
Mon 03:29:27 PM 39.9294 -86.7364 268° West 376 433 36,000  Level Indianapolis Center
Mon 03:30:29 PM 39.9269 -86.9003 269° West 377 434 36,000  Level Indianapolis Center
Mon 03:31:30 PM 39.9247 -87.0378 269° West 379 436 36,000  Level Indianapolis Center
Mon 03:32:32 PM 39.9214 -87.1736 268° West 376 433 36,000  Level Indianapolis Center
Mon 03:33:34 PM 39.9186 -87.3078 268° West 372 428 36,000  Level Indianapolis Center
Mon 03:34:36 PM 39.9153 -87.4453 268° West 376 433 36,000  Level Indianapolis Center
Mon 03:35:38 PM 39.9117 -87.5831 268° West 380 437 36,000  Level Indianapolis Center
Mon 03:36:39 PM 39.9086 -87.7228 268° West 383 441 36,000  Level Indianapolis Center
Mon 03:37:41 PM 39.9044 -87.8617 268° West 383 441 36,000  Level Indianapolis Center
Mon 03:38:43 PM 39.8994 -88.0250 268° West 381 438 36,000  Level Indianapolis Center
Mon 03:39:45 PM 39.8953 -88.1608 268° West 378 435 36,000  Level Indianapolis Center
Mon 03:40:47 PM 39.8925 -88.2964 269° West 377 434 36,000  Level Indianapolis Center
Mon 03:41:47 PM 39.8856 -88.4311 266° West 380 437 36,000  Level Kansas City Center
Mon 03:42:47 PM 39.8828 -88.5672 269° West 378 435 36,000  Level Kansas City Center
Mon 03:43:51 PM 39.8767 -88.7069 267° West 384 442 36,000  Level Kansas City Center
Mon 03:44:51 PM 39.8722 -88.8428 268° West 379 436 36,000  Level Kansas City Center
Mon 03:45:55 PM 39.8683 -88.9792 268° West 377 434 36,000  Level Kansas City Center
Mon 03:46:56 PM 39.8622 -89.1436 267° West 378 435 36,000  Level Kansas City Center
Mon 03:47:56 PM 39.8561 -89.2817 267° West 380 437 36,000  Level Kansas City Center
Mon 03:49:00 PM 39.8503 -89.4161 267° West 376 433 36,000  Level Kansas City Center
Mon 03:50:01 PM 39.8453 -89.5497 267° West 371 427 36,000  Level Kansas City Center
Mon 03:51:05 PM 39.8400 -89.6850 267° West 372 428 36,000  Level Kansas City Center
Mon 03:52:06 PM 39.8403 -89.8233 270° West 377 434 36,000  Level Kansas City Center
Mon 03:53:07 PM 39.8425 -89.9600 271° West 378 435 36,000  Level Kansas City Center
Mon 03:54:07 PM 39.8442 -90.0964 271° West 377 434 36,000  Level Kansas City Center
Mon 03:55:11 PM 39.8447 -90.2594 270° West 375 432 36,000  Level Kansas City Center
Mon 03:56:11 PM 39.8461 -90.3975 271° West 378 435 36,000  Level Kansas City Center
Mon 03:57:14 PM 39.8475 -90.5333 271° West 377 434 36,000  Level Kansas City Center
Mon 03:58:15 PM 39.8469 -90.6700 270° West 377 434 36,000  Level Kansas City Center
Mon 03:59:18 PM 39.8478 -90.8033 271° West 374 430 36,000  Level Kansas City Center
Mon 04:00:19 PM 39.8478 -90.9367 270° West 370 426 36,000  Level Kansas City Center
Mon 04:01:23 PM 39.8492 -91.0803 271° West 371 427 36,000  Level Kansas City Center
Mon 04:02:24 PM 39.8483 -91.2128 270° West 369 425 36,000  Level Kansas City Center
Mon 04:03:25 PM 39.8456 -91.3439 268° West 366 421 36,000  Level Kansas City Center
Mon 04:04:28 PM 39.8314 -91.5028 263° West 369 425 36,000  Level Kansas City Center
Mon 04:05:29 PM 39.8211 -91.6328 264° West 366 421 36,000  Level Kansas City Center
Mon 04:06:32 PM 39.8119 -91.7633 265° West 366 421 36,000  Level Kansas City Center
Mon 04:07:33 PM 39.8017 -91.8947 264° West 365 420 36,000  Level Kansas City Center
Mon 04:08:36 PM 39.7925 -92.0247 265° West 365 420 36,000  Level Kansas City Center
Mon 04:09:37 PM 39.7822 -92.1544 264° West 364 419 36,000 -677 Level Kansas City Center
Mon 04:10:40 PM 39.7692 -92.3125 264° West 366 421 34,600 -1,403 Descending Kansas City Center
Mon 04:11:41 PM 39.7583 -92.4442 264° West 368 423 33,100 -1,452 Descending Kansas City Center
Mon 04:12:44 PM 39.7478 -92.5775 264° West 369 425 31,600 -1,440 Descending Kansas City Center
Mon 04:13:46 PM 39.7347 -92.7164 263° West 380 437 30,100 -1,475 Descending Kansas City Center
Mon 04:14:46 PM 39.7236 -92.8550 264° West 385 443 28,600 -1,452 Descending Kansas City Center
Mon 04:15:50 PM 39.7111 -92.9944 263° West 388 447 27,100 -1,584 Descending Kansas City Center
Mon 04:16:51 PM 39.6964 -93.1664 264° West 397 457 25,300 -1,610 Descending Kansas City Center
Mon 04:17:53 PM 39.6839 -93.3050 263° West 392 451 23,800 -1,463 Descending Kansas City Center
Mon 04:18:54 PM 39.6700 -93.4425 263° West 388 447 22,300 -1,488 Descending Kansas City Center
Mon 04:19:58 PM 39.6589 -93.5761 264° West 380 437 20,700 -1,452 Descending Kansas City Center
Mon 04:20:58 PM 39.6475 -93.7061 264° West 368 423 19,300 -1,452 Descending Kansas City Center
Mon 04:22:02 PM 39.6339 -93.8461 263° West 362 417 17,700 -1,597 Descending Kansas City Center
Mon 04:23:02 PM 39.5828 -93.9692 242° Southwest 348 400 16,000 -1,548 Descending Kansas City Center
Mon 04:24:06 PM 39.5331 -94.0686 237° Southwest 344 396 14,500 -1,476 Descending Kansas City Center
Mon 04:25:08 PM 39.4761 -94.1833 237° Southwest 339 390 12,900 -1,180 Descending Kansas City Center
Mon 04:26:08 PM 39.4250 -94.2825 236° Southwest 345 397 12,100 -435 Descending Kansas City Center
Mon 04:27:12 PM 39.3667 -94.3972 237° Southwest 343 395 12,000 -192 Descending Kansas City Center
Mon 04:28:13 PM 39.3164 -94.4950 236° Southwest 342 394 11,700 -624 Descending Kansas City Center
Mon 04:29:17 PM 39.2697 -94.5867 237° Southwest 317 365 10,700 -1,403 Descending Kansas City Center
Mon 04:30:17 PM 39.1944 -94.6219 200° South 261 300 8,800 -2,323 Descending Kansas City Center
Mon 04:31:21 PM 39.1319 -94.6561 203° Southwest 268 308 5,900 -2,226 Descending Kansas City Center
Mon 04:32:21 PM 39.1597 -94.7419 293° West 256 295 4,200 -1,700 Descending Kansas City Center

Login

Don't have an account? Register now (free) for customized features, flight alerts, and more!